createdAt,value
2018-04-07T00:02:16.149Z,5.40
2018-04-07T00:04:45.239Z,5.43
2018-04-07T00:07:13.603Z,3.90
2018-04-07T00:09:41.889Z,4.87
2018-04-07T00:12:10.966Z,5.43
2018-04-07T00:14:39.292Z,8.30
2018-04-07T00:17:07.564Z,4.40
2018-04-07T00:19:36.637Z,4.17
2018-04-07T00:22:04.934Z,5.10
2018-04-07T00:24:33.177Z,4.00
2018-04-07T00:27:01.484Z,4.93
2018-04-07T00:29:29.747Z,4.37
2018-04-07T00:31:58.005Z,5.20
2018-04-07T00:34:26.365Z,6.20
2018-04-07T00:36:54.656Z,5.70
2018-04-07T00:39:22.946Z,4.90
2018-04-07T00:41:51.209Z,5.43
2018-04-07T00:44:21.041Z,5.40
2018-04-07T00:46:49.340Z,8.47
2018-04-07T00:49:17.618Z,5.67
2018-04-07T00:51:46.693Z,5.20
2018-04-07T00:54:14.950Z,5.73
2018-04-07T00:56:43.226Z,6.27
2018-04-07T00:59:11.522Z,5.43
2018-04-07T01:01:39.806Z,5.70
2018-04-07T01:04:08.110Z,6.40
2018-04-07T01:06:37.144Z,5.83
2018-04-07T01:09:06.279Z,5.93
2018-04-07T01:11:34.545Z,5.37
2018-04-07T01:14:02.874Z,8.03
2018-04-07T01:16:31.143Z,6.40
2018-04-07T01:18:59.423Z,9.23
2018-04-07T01:21:27.742Z,7.00
2018-04-07T01:23:55.998Z,6.37
2018-04-07T01:26:24.293Z,5.93
2018-04-07T01:28:52.562Z,6.23
2018-04-07T01:31:20.853Z,6.80
2018-04-07T01:33:49.133Z,6.73
2018-04-07T01:36:17.418Z,6.43
2018-04-07T01:38:45.696Z,4.87
2018-04-07T01:41:14.002Z,5.70
2018-04-07T01:43:43.046Z,6.10
2018-04-07T01:46:11.367Z,6.70
2018-04-07T01:48:40.101Z,5.77
2018-04-07T01:51:08.379Z,9.30
2018-04-07T01:53:36.815Z,5.87
2018-04-07T01:56:05.081Z,6.87
2018-04-07T01:58:33.348Z,6.10
2018-04-07T02:01:01.720Z,6.10
2018-04-07T02:03:29.986Z,5.37
2018-04-07T02:05:58.270Z,6.27
2018-04-07T02:08:26.541Z,5.23
2018-04-07T02:10:54.857Z,5.77
2018-04-07T02:13:23.158Z,6.77
2018-04-07T02:15:53.095Z,5.40
2018-04-07T02:18:21.386Z,5.23
2018-04-07T02:20:49.663Z,6.53
2018-04-07T02:23:17.967Z,8.53
2018-04-07T02:25:46.258Z,6.00
2018-04-07T02:28:14.563Z,5.07
2018-04-07T02:30:42.836Z,6.93
2018-04-07T02:33:11.132Z,6.03
2018-04-07T02:35:39.416Z,5.90
2018-04-07T02:38:08.499Z,5.93
2018-04-07T02:40:36.809Z,5.70
2018-04-07T02:43:05.107Z,6.27
2018-04-07T02:45:33.428Z,6.40
2018-04-07T02:48:02.475Z,6.77
2018-04-07T02:50:30.743Z,6.90
2018-04-07T02:52:59.044Z,5.40
2018-04-07T02:55:27.322Z,9.90
2018-04-07T02:57:55.684Z,6.23
2018-04-07T03:00:23.956Z,6.77
2018-04-07T03:02:53.309Z,11.47
2018-04-07T03:05:22.362Z,20.07
2018-04-07T03:07:50.681Z,17.50
2018-04-07T03:10:18.983Z,16.50
2018-04-07T03:12:47.265Z,15.17
2018-04-07T03:15:15.577Z,10.23
2018-04-07T03:17:44.621Z,8.10
2018-04-07T03:20:12.915Z,7.00
2018-04-07T03:22:41.370Z,7.00
2018-04-07T03:25:10.471Z,5.40
2018-04-07T03:27:39.519Z,8.50
2018-04-07T03:30:07.784Z,5.50
2018-04-07T03:32:36.081Z,5.10
2018-04-07T03:35:04.353Z,4.83
2018-04-07T03:37:32.688Z,5.30
2018-04-07T03:40:00.962Z,4.83
2018-04-07T03:42:29.990Z,4.77
2018-04-07T03:44:58.277Z,5.63
2018-04-07T03:47:26.558Z,6.13
2018-04-07T03:49:54.872Z,5.33
2018-04-07T03:52:23.135Z,5.53
2018-04-07T03:54:51.440Z,5.60
2018-04-07T03:57:22.743Z,6.80
2018-04-07T03:59:51.029Z,8.60
2018-04-07T04:02:19.330Z,4.53
2018-04-07T04:04:47.647Z,5.17
2018-04-07T04:07:15.930Z,5.40
2018-04-07T04:09:44.215Z,5.57
2018-04-07T04:12:15.577Z,5.20
2018-04-07T04:14:43.862Z,5.40
2018-04-07T04:17:12.185Z,6.43
2018-04-07T04:19:41.247Z,6.00
2018-04-07T04:22:09.554Z,6.93
2018-04-07T04:24:37.822Z,4.97
2018-04-07T04:27:06.135Z,4.93
2018-04-07T04:29:34.419Z,5.30
2018-04-07T04:32:02.685Z,7.20
2018-04-07T04:34:30.967Z,6.67
2018-04-07T04:36:59.223Z,5.90
2018-04-07T04:39:27.534Z,4.60
2018-04-07T04:41:58.840Z,4.87
2018-04-07T04:44:30.758Z,6.33
2018-04-07T04:46:59.037Z,5.43
2018-04-07T04:49:27.300Z,6.70
2018-04-07T04:51:55.590Z,6.20
2018-04-07T04:54:23.885Z,8.77
2018-04-07T04:56:52.189Z,6.80
2018-04-07T04:59:20.462Z,6.17
2018-04-07T05:01:48.799Z,7.10
2018-04-07T05:04:17.070Z,8.17
2018-04-07T05:06:45.372Z,6.23
2018-04-07T05:09:13.670Z,8.00
2018-04-07T05:11:41.932Z,7.50
2018-04-07T05:14:10.231Z,6.10
2018-04-07T05:16:38.537Z,6.07
2018-04-07T05:19:07.600Z,6.70
2018-04-07T05:21:35.899Z,5.77
2018-04-07T05:24:04.226Z,5.23
2018-04-07T05:26:32.513Z,7.27
2018-04-07T05:29:00.785Z,6.37
2018-04-07T05:31:29.086Z,7.43
2018-04-07T05:33:57.366Z,7.83
2018-04-07T05:36:25.637Z,8.40
2018-04-07T05:38:53.935Z,8.60
2018-04-07T05:41:22.222Z,8.03
2018-04-07T05:43:50.552Z,7.17
2018-04-07T05:46:18.838Z,6.50
2018-04-07T05:48:47.142Z,7.00
2018-04-07T05:51:15.438Z,6.53
2018-04-07T05:53:44.478Z,5.37
2018-04-07T05:56:12.797Z,6.13
2018-04-07T05:58:41.147Z,7.40
2018-04-07T06:01:09.466Z,5.27
2018-04-07T06:03:37.754Z,4.50
2018-04-07T06:06:06.139Z,6.73
2018-04-07T06:08:35.165Z,6.20
2018-04-07T06:11:03.436Z,4.60
2018-04-07T06:13:31.764Z,5.47
2018-04-07T06:16:00.031Z,5.37
2018-04-07T06:18:28.330Z,5.60
2018-04-07T06:20:56.603Z,6.20
2018-04-07T06:23:24.993Z,4.90
2018-04-07T06:25:53.256Z,5.30
2018-04-07T06:28:21.548Z,5.67
2018-04-07T06:30:49.862Z,6.17
2018-04-07T06:33:18.175Z,5.03
2018-04-07T06:35:46.514Z,5.07
2018-04-07T06:38:14.861Z,5.87
2018-04-07T06:40:43.161Z,6.70
2018-04-07T06:43:11.468Z,5.10
2018-04-07T06:45:39.893Z,5.23
2018-04-07T06:48:08.190Z,5.43
2018-04-07T06:50:39.964Z,5.27
2018-04-07T06:53:08.266Z,5.40
2018-04-07T06:55:36.647Z,5.10
2018-04-07T06:58:05.049Z,6.10
2018-04-07T07:00:33.577Z,5.03
2018-04-07T07:03:01.922Z,8.17
2018-04-07T07:05:31.110Z,4.93
2018-04-07T07:07:59.525Z,5.40
2018-04-07T07:10:27.912Z,5.07
2018-04-07T07:12:56.979Z,6.30
2018-04-07T07:15:26.185Z,5.93
2018-04-07T07:17:54.586Z,5.57
2018-04-07T07:20:23.674Z,7.00
2018-04-07T07:22:54.708Z,6.17
2018-04-07T07:25:23.095Z,5.87
2018-04-07T07:27:51.471Z,6.03
2018-04-07T07:30:20.546Z,6.67
2018-04-07T07:32:48.979Z,6.13
2018-04-07T07:35:17.258Z,9.83
2018-04-07T07:37:45.632Z,6.37
2018-04-07T07:40:15.007Z,8.00
2018-04-07T07:42:43.307Z,6.53
2018-04-07T07:45:11.709Z,6.03
2018-04-07T07:47:40.058Z,5.00
2018-04-07T07:50:08.428Z,6.93
2018-04-07T07:52:36.740Z,5.97
2018-04-07T07:55:05.009Z,7.20
2018-04-07T07:57:33.330Z,6.20
2018-04-07T08:00:02.867Z,7.23
2018-04-07T08:02:31.216Z,6.80
2018-04-07T08:04:59.630Z,6.57
2018-04-07T08:07:28.078Z,7.90
2018-04-07T08:09:56.527Z,4.93
2018-04-07T08:12:31.271Z,8.27
2018-04-07T08:14:59.673Z,6.87
2018-04-07T08:17:27.979Z,7.23
2018-04-07T08:19:56.507Z,5.90
2018-04-07T08:22:26.072Z,6.30
2018-04-07T08:24:57.839Z,6.97
2018-04-07T08:27:42.119Z,6.73
2018-04-07T08:30:11.796Z,7.10
2018-04-07T08:32:41.251Z,5.57
2018-04-07T08:35:10.619Z,6.03
2018-04-07T08:37:39.821Z,5.83
2018-04-07T08:40:08.148Z,5.10
2018-04-07T08:42:37.191Z,6.07
2018-04-07T08:45:07.701Z,6.30
2018-04-07T08:47:39.028Z,6.43
2018-04-07T08:50:07.737Z,6.30
2018-04-07T08:52:36.064Z,7.40
2018-04-07T08:57:37.719Z,5.30
2018-04-07T09:00:06.224Z,5.93
2018-04-07T09:02:39.406Z,6.60
2018-04-07T09:05:07.897Z,6.70
2018-04-07T09:07:36.610Z,6.30
2018-04-07T09:10:05.337Z,6.40
2018-04-07T09:12:33.745Z,5.70
2018-04-07T09:15:02.140Z,7.87
2018-04-07T09:17:30.527Z,5.93
2018-04-07T09:19:59.157Z,5.57
2018-04-07T09:22:27.811Z,5.47
2018-04-07T09:24:56.183Z,6.27
2018-04-07T09:27:25.666Z,6.97
2018-04-07T09:29:54.067Z,6.87
2018-04-07T09:32:25.429Z,6.97
2018-04-07T09:34:56.406Z,6.47
2018-04-07T09:37:24.691Z,9.20
2018-04-07T09:39:53.018Z,5.60
2018-04-07T09:42:21.331Z,5.83
2018-04-07T09:44:49.694Z,5.70
2018-04-07T09:47:18.175Z,6.83
2018-04-07T09:49:46.801Z,6.37
2018-04-07T09:52:15.160Z,6.40
2018-04-07T09:54:43.479Z,5.77
2018-04-07T09:57:11.862Z,5.40
2018-04-07T09:59:41.084Z,6.47
2018-04-07T10:02:09.603Z,6.27
2018-04-07T10:04:38.339Z,7.07
2018-04-07T10:07:07.604Z,6.03
2018-04-07T10:09:35.891Z,8.93
2018-04-07T10:12:04.964Z,6.27
2018-04-07T10:14:33.263Z,5.50
2018-04-07T10:17:01.630Z,5.60
2018-04-07T10:19:29.980Z,6.23
2018-04-07T10:21:58.385Z,5.80
2018-04-07T10:24:26.739Z,6.73
2018-04-07T10:26:55.931Z,6.87
2018-04-07T10:29:24.371Z,6.37
2018-04-07T10:31:52.699Z,7.03
2018-04-07T10:34:21.120Z,6.00
2018-04-07T10:36:49.578Z,5.77
2018-04-07T10:39:17.828Z,6.20
2018-04-07T10:41:46.172Z,7.77
2018-04-07T10:44:15.393Z,6.03
2018-04-07T10:46:44.526Z,6.80
2018-04-07T10:49:12.835Z,6.60
2018-04-07T10:51:41.955Z,6.10
2018-04-07T10:54:11.173Z,6.43
2018-04-07T10:56:39.472Z,6.60
2018-04-07T10:59:07.726Z,6.57
2018-04-07T11:01:36.092Z,6.90
2018-04-07T11:04:05.142Z,5.93
2018-04-07T11:06:35.694Z,7.13
2018-04-07T11:09:04.129Z,6.90
2018-04-07T11:11:33.358Z,6.70
2018-04-07T11:14:01.812Z,7.50
2018-04-07T11:16:30.309Z,6.33
2018-04-07T11:18:58.803Z,7.00
2018-04-07T11:21:27.485Z,6.30
2018-04-07T11:23:59.675Z,7.07
2018-04-07T11:26:28.760Z,6.90
2018-04-07T11:28:57.169Z,7.20
2018-04-07T11:31:26.270Z,6.10
2018-04-07T11:33:54.654Z,5.90
2018-04-07T11:36:23.445Z,8.00
2018-04-07T11:38:51.763Z,7.50
2018-04-07T11:41:20.107Z,6.33
2018-04-07T11:43:48.706Z,6.53
2018-04-07T11:46:17.002Z,8.03
2018-04-07T11:48:45.359Z,6.83
2018-04-07T11:51:13.917Z,7.27
2018-04-07T11:53:43.199Z,8.30
2018-04-07T11:56:11.667Z,7.60
2018-04-07T11:58:39.957Z,7.13
2018-04-07T12:01:08.268Z,6.67
2018-04-07T12:03:36.883Z,7.67
2018-04-07T12:06:07.211Z,7.90
2018-04-07T12:08:35.997Z,8.53
2018-04-07T12:11:04.327Z,7.13
2018-04-07T12:13:32.731Z,6.80
2018-04-07T12:16:01.977Z,7.87
2018-04-07T12:18:30.459Z,6.60
2018-04-07T12:20:58.858Z,7.40
2018-04-07T12:23:29.113Z,7.50
2018-04-07T12:25:58.256Z,6.50
2018-04-07T12:28:27.166Z,6.03
2018-04-07T12:30:55.568Z,7.37
2018-04-07T12:33:23.968Z,6.57
2018-04-07T12:35:52.289Z,7.43
2018-04-07T12:38:21.666Z,7.40
2018-04-07T12:40:50.187Z,8.63
2018-04-07T12:43:18.466Z,8.00
2018-04-07T12:45:46.854Z,6.73
2018-04-07T12:48:15.339Z,7.60
2018-04-07T12:50:45.193Z,7.67
2018-04-07T12:53:13.607Z,7.33
2018-04-07T12:55:41.946Z,8.23
2018-04-07T12:58:10.411Z,7.90
2018-04-07T13:00:38.911Z,8.00
2018-04-07T13:03:08.042Z,7.90
2018-04-07T13:05:36.372Z,8.23
2018-04-07T13:08:04.735Z,8.07
2018-04-07T13:10:33.117Z,7.77
2018-04-07T13:13:01.578Z,9.80
2018-04-07T13:15:29.954Z,7.93
2018-04-07T13:17:58.427Z,9.20
2018-04-07T13:20:26.883Z,8.00
2018-04-07T13:22:55.207Z,8.43
2018-04-07T13:25:23.559Z,8.30
2018-04-07T13:27:51.917Z,8.70
2018-04-07T13:30:20.369Z,7.77
2018-04-07T13:32:48.761Z,8.83
2018-04-07T13:35:17.155Z,8.80
2018-04-07T13:37:46.311Z,9.87
2018-04-07T13:40:14.623Z,9.20
2018-04-07T13:42:43.718Z,9.47
2018-04-07T13:45:12.841Z,9.97
2018-04-07T13:47:41.178Z,9.63
2018-04-07T13:50:09.531Z,11.10
2018-04-07T13:52:37.858Z,9.83
2018-04-07T13:55:07.026Z,9.90
2018-04-07T13:57:35.540Z,9.43
2018-04-07T14:00:04.710Z,9.53
2018-04-07T14:02:33.097Z,9.60
2018-04-07T14:05:01.383Z,9.30
2018-04-07T14:07:29.708Z,10.53
2018-04-07T14:09:58.082Z,10.67
2018-04-07T14:12:26.392Z,10.30
2018-04-07T14:14:54.768Z,13.10
2018-04-07T14:17:23.110Z,11.20
2018-04-07T14:19:51.451Z,10.30
2018-04-07T14:22:20.587Z,11.20
2018-04-07T14:24:48.874Z,10.27
2018-04-07T14:27:17.270Z,9.80
2018-04-07T14:29:45.548Z,9.90
2018-04-07T14:32:13.895Z,10.13
2018-04-07T14:34:42.280Z,8.90
2018-04-07T14:37:11.435Z,9.53
2018-04-07T14:39:40.598Z,10.00
2018-04-07T14:42:09.031Z,10.73
2018-04-07T14:44:38.627Z,9.30
2018-04-07T14:47:06.976Z,9.67
2018-04-07T14:49:35.257Z,9.63
2018-04-07T14:52:03.651Z,9.23
2018-04-07T14:54:31.980Z,8.53
2018-04-07T14:57:00.326Z,9.30
2018-04-07T14:59:28.703Z,8.87
2018-04-07T15:01:57.024Z,8.17
2018-04-07T15:04:25.355Z,8.70
2018-04-07T15:06:53.746Z,8.87
2018-04-07T15:09:22.096Z,9.43
2018-04-07T15:11:50.460Z,9.80
2018-04-07T15:14:18.772Z,8.33
2018-04-07T15:16:47.140Z,7.97
2018-04-07T15:19:15.451Z,8.27
2018-04-07T15:21:43.743Z,8.47
2018-04-07T15:24:12.101Z,8.03
2018-04-07T15:26:40.630Z,7.07
2018-04-07T15:29:09.018Z,8.63
2018-04-07T15:31:38.091Z,7.00
2018-04-07T15:34:06.466Z,7.33
2018-04-07T15:36:35.612Z,6.80
2018-04-07T15:39:03.907Z,6.70
2018-04-07T15:41:32.218Z,6.20
2018-04-07T15:44:01.353Z,6.67
2018-04-07T15:46:29.757Z,6.37
2018-04-07T15:48:58.042Z,6.30
2018-04-07T15:51:26.384Z,6.10
2018-04-07T15:53:54.692Z,6.50
2018-04-07T15:56:23.070Z,6.63
2018-04-07T15:58:51.517Z,6.10
2018-04-07T16:01:19.913Z,6.70
2018-04-07T16:03:48.194Z,5.90
2018-04-07T16:06:16.486Z,5.43
2018-04-07T16:08:44.887Z,5.60
2018-04-07T16:11:14.668Z,5.40
2018-04-07T16:13:42.983Z,5.20
2018-04-07T16:16:11.286Z,6.10
2018-04-07T16:18:39.549Z,5.93
2018-04-07T16:21:08.638Z,6.40
2018-04-07T16:23:37.692Z,5.33
2018-04-07T16:26:06.206Z,6.07
2018-04-07T16:28:34.488Z,5.73
2018-04-07T16:31:02.907Z,5.43
2018-04-07T16:33:31.206Z,5.40
2018-04-07T16:35:59.475Z,5.70
2018-04-07T16:38:27.828Z,5.57
2018-04-07T16:40:56.156Z,5.00
2018-04-07T16:43:24.432Z,5.30
2018-04-07T16:45:52.793Z,5.07
2018-04-07T16:48:21.174Z,6.50
2018-04-07T16:50:49.468Z,5.47
2018-04-07T16:53:18.579Z,5.47
2018-04-07T16:55:46.965Z,6.00
2018-04-07T16:58:15.301Z,6.07
2018-04-07T17:00:43.677Z,5.73
2018-04-07T17:03:11.963Z,5.60
2018-04-07T17:05:40.349Z,6.27
2018-04-07T17:08:08.678Z,5.83
2018-04-07T17:10:37.534Z,5.50
2018-04-07T17:13:05.901Z,5.33
2018-04-07T17:15:34.240Z,6.80
2018-04-07T17:18:03.311Z,6.27
2018-04-07T17:20:31.650Z,8.37
2018-04-07T17:23:00.016Z,8.40
2018-04-07T17:25:28.288Z,6.27
2018-04-07T17:27:56.593Z,6.57
2018-04-07T17:30:24.958Z,6.80
2018-04-07T17:32:53.296Z,6.40
2018-04-07T17:35:21.602Z,5.70
2018-04-07T17:37:49.886Z,6.70
2018-04-07T17:40:18.404Z,7.07
2018-04-07T17:42:46.696Z,6.87
2018-04-07T17:45:15.081Z,7.13
2018-04-07T17:47:43.484Z,6.47
2018-04-07T17:50:11.911Z,7.43
2018-04-07T17:52:40.248Z,11.07
2018-04-07T17:55:09.394Z,7.37
2018-04-07T17:57:37.676Z,7.63
2018-04-07T18:00:06.248Z,6.93
2018-04-07T18:02:34.550Z,8.10
2018-04-07T18:05:03.381Z,7.13
2018-04-07T18:07:32.575Z,6.90
2018-04-07T18:10:07.408Z,6.57
2018-04-07T18:12:36.496Z,8.03
2018-04-07T18:15:05.535Z,8.40
2018-04-07T18:17:33.830Z,7.63
2018-04-07T18:20:02.106Z,7.90
2018-04-07T18:22:36.484Z,10.10
2018-04-07T18:25:06.110Z,9.00
2018-04-07T18:27:34.491Z,7.67
2018-04-07T18:30:02.859Z,9.00
2018-04-07T18:32:31.160Z,8.33
2018-04-07T18:34:59.873Z,11.53
2018-04-07T18:37:28.208Z,9.40
2018-04-07T18:39:56.581Z,9.87
2018-04-07T18:42:26.486Z,9.37
2018-04-07T18:44:54.888Z,9.83
2018-04-07T18:47:23.268Z,10.90
2018-04-07T18:49:51.756Z,10.30
2018-04-07T18:52:20.240Z,10.43
2018-04-07T18:54:48.716Z,8.13
2018-04-07T18:57:17.769Z,8.23
2018-04-07T18:59:46.152Z,8.10
2018-04-07T19:02:14.475Z,8.37
2018-04-07T19:04:42.836Z,8.97
2018-04-07T19:07:11.993Z,8.27
2018-04-07T19:09:43.761Z,8.53
2018-04-07T19:12:12.430Z,7.70
2018-04-07T19:14:40.713Z,8.33
2018-04-07T19:17:09.027Z,8.90
2018-04-07T19:19:37.504Z,11.40
2018-04-07T19:22:06.688Z,8.97
2018-04-07T19:24:35.065Z,9.17
2018-04-07T19:27:03.382Z,8.97
2018-04-07T19:29:32.491Z,8.83
2018-04-07T19:32:01.169Z,9.27
2018-04-07T19:34:30.437Z,10.90
2018-04-07T19:36:59.677Z,10.40
2018-04-07T19:39:28.116Z,9.57
2018-04-07T19:41:56.401Z,12.20
2018-04-07T19:44:24.770Z,9.60
2018-04-07T19:46:53.202Z,9.80
2018-04-07T19:49:21.635Z,10.00
2018-04-07T19:51:49.949Z,12.90
2018-04-07T19:54:19.077Z,9.47
2018-04-07T19:56:47.390Z,9.47
2018-04-07T19:59:15.797Z,10.20
2018-04-07T20:01:44.975Z,9.03
2018-04-07T20:04:13.311Z,10.20
2018-04-07T20:06:41.703Z,9.10
2018-04-07T20:09:10.732Z,9.13
2018-04-07T20:11:39.057Z,9.53
2018-04-07T20:14:08.150Z,10.40
2018-04-07T20:16:36.561Z,9.10
2018-04-07T20:19:04.924Z,9.20
2018-04-07T20:21:33.261Z,9.00
2018-04-07T20:24:02.331Z,10.00
2018-04-07T20:26:30.676Z,8.47
2018-04-07T20:28:59.091Z,8.40
2018-04-07T20:31:27.371Z,9.07
2018-04-07T20:33:55.678Z,9.40
2018-04-07T20:36:23.996Z,9.27
2018-04-07T20:38:52.282Z,9.20
2018-04-07T20:41:20.600Z,9.60
2018-04-07T20:43:48.914Z,9.43
2018-04-07T20:46:17.433Z,10.67
2018-04-07T20:48:45.718Z,10.87
2018-04-07T20:51:14.005Z,9.00
2018-04-07T20:53:42.315Z,10.73
2018-04-07T20:56:10.596Z,11.80
2018-04-07T20:58:38.929Z,10.37
2018-04-07T21:01:07.230Z,11.90
2018-04-07T21:03:35.512Z,9.90
2018-04-07T21:06:03.848Z,9.60
2018-04-07T21:08:32.137Z,9.80
2018-04-07T21:11:01.981Z,9.50
2018-04-07T21:13:30.255Z,9.73
2018-04-07T21:15:58.537Z,10.53
2018-04-07T21:18:26.883Z,11.60
2018-04-07T21:20:55.162Z,9.73
2018-04-07T21:23:23.480Z,10.23
2018-04-07T21:25:52.602Z,10.83
2018-04-07T21:28:20.982Z,10.70
2018-04-07T21:30:49.279Z,10.70
2018-04-07T21:33:17.557Z,12.23
2018-04-07T21:35:46.714Z,11.33
2018-04-07T21:38:15.799Z,12.37
2018-04-07T21:40:44.354Z,11.70
2018-04-07T21:43:13.444Z,10.90
2018-04-07T21:45:41.742Z,11.07
2018-04-07T21:48:10.072Z,10.90
2018-04-07T21:50:38.798Z,12.60
2018-04-07T21:53:07.137Z,9.07
2018-04-07T21:55:35.418Z,9.83
2018-04-07T21:58:03.682Z,9.80
2018-04-07T22:00:31.990Z,10.50
2018-04-07T22:03:00.309Z,10.00
2018-04-07T22:05:28.632Z,11.27
2018-04-07T22:07:56.914Z,10.40
2018-04-07T22:10:25.272Z,10.53
2018-04-07T22:12:54.341Z,10.33
2018-04-07T22:15:22.611Z,8.73
2018-04-07T22:17:50.913Z,10.80
2018-04-07T22:20:21.220Z,9.07
2018-04-07T22:22:51.145Z,12.50
2018-04-07T22:25:20.237Z,10.10
2018-04-07T22:27:48.529Z,10.57
2018-04-07T22:30:17.614Z,10.10
2018-04-07T22:32:45.899Z,10.53
2018-04-07T22:35:14.996Z,10.23
2018-04-07T22:37:43.315Z,9.70
2018-04-07T22:40:11.602Z,9.10
2018-04-07T22:42:39.894Z,9.70
2018-04-07T22:45:08.961Z,11.90
2018-04-07T22:47:37.286Z,8.73
2018-04-07T22:50:05.582Z,9.10
2018-04-07T22:52:33.926Z,9.10
2018-04-07T22:55:02.204Z,10.87
2018-04-07T22:57:30.488Z,8.30
2018-04-07T22:59:58.818Z,7.70
2018-04-07T23:02:27.091Z,8.80
2018-04-07T23:04:56.180Z,9.47
2018-04-07T23:07:24.487Z,9.50
2018-04-07T23:09:52.789Z,9.40
2018-04-07T23:12:21.115Z,8.80
2018-04-07T23:14:49.388Z,8.80
2018-04-07T23:17:18.440Z,12.10
2018-04-07T23:19:46.740Z,8.10
2018-04-07T23:22:14.994Z,7.33
2018-04-07T23:24:43.319Z,9.40
2018-04-07T23:27:12.383Z,10.43
2018-04-07T23:29:40.684Z,9.13
2018-04-07T23:32:08.967Z,8.67
2018-04-07T23:34:37.248Z,8.90
2018-04-07T23:37:05.580Z,8.90
2018-04-07T23:39:33.868Z,9.60
2018-04-07T23:42:02.141Z,8.77
2018-04-07T23:44:30.466Z,10.60
2018-04-07T23:46:58.737Z,9.13
2018-04-07T23:49:27.802Z,12.00
2018-04-07T23:51:57.713Z,10.00
2018-04-07T23:54:26.054Z,9.77
2018-04-07T23:56:57.414Z,9.70
2018-04-07T23:59:25.715Z,9.30
